sensor_id;sensor_type;location;lat;lon;timestamp;P1;durP1;ratioP1;P2;durP2;ratioP2
56381;SDS011;50261;51.150;4.470;2023-03-14T00:02:09;6.18;;;1.00;;
56381;SDS011;50261;51.150;4.470;2023-03-14T00:04:35;7.93;;;1.25;;
56381;SDS011;50261;51.150;4.470;2023-03-14T00:07:01;7.60;;;1.05;;
56381;SDS011;50261;51.150;4.470;2023-03-14T00:09:26;3.22;;;0.57;;
56381;SDS011;50261;51.150;4.470;2023-03-14T00:11:52;8.77;;;1.25;;
56381;SDS011;50261;51.150;4.470;2023-03-14T00:14:18;5.93;;;1.05;;
56381;SDS011;50261;51.150;4.470;2023-03-14T00:16:47;4.65;;;1.35;;
56381;SDS011;50261;51.150;4.470;2023-03-14T00:19:13;5.40;;;1.10;;
56381;SDS011;50261;51.150;4.470;2023-03-14T00:21:38;6.47;;;1.25;;
56381;SDS011;50261;51.150;4.470;2023-03-14T00:24:04;2.83;;;0.60;;
56381;SDS011;50261;51.150;4.470;2023-03-14T00:26:31;2.25;;;0.80;;
56381;SDS011;50261;51.150;4.470;2023-03-14T00:28:57;4.25;;;1.10;;
56381;SDS011;50261;51.150;4.470;2023-03-14T00:31:23;4.95;;;1.00;;
56381;SDS011;50261;51.150;4.470;2023-03-14T00:33:50;4.65;;;0.82;;
56381;SDS011;50261;51.150;4.470;2023-03-14T00:36:17;6.75;;;0.80;;
56381;SDS011;50261;51.150;4.470;2023-03-14T00:38:44;10.43;;;1.38;;
56381;SDS011;50261;51.150;4.470;2023-03-14T00:41:11;6.30;;;1.15;;
56381;SDS011;50261;51.150;4.470;2023-03-14T00:43:37;7.43;;;0.90;;
56381;SDS011;50261;51.150;4.470;2023-03-14T00:46:03;3.80;;;0.73;;
56381;SDS011;50261;51.150;4.470;2023-03-14T00:48:30;6.22;;;0.52;;
56381;SDS011;50261;51.150;4.470;2023-03-14T00:50:55;6.78;;;1.27;;
56381;SDS011;50261;51.150;4.470;2023-03-14T00:53:21;5.60;;;1.02;;
56381;SDS011;50261;51.150;4.470;2023-03-14T00:55:47;7.50;;;1.58;;
56381;SDS011;50261;51.150;4.470;2023-03-14T00:58:14;8.93;;;2.00;;
56381;SDS011;50261;51.150;4.470;2023-03-14T01:00:40;11.88;;;2.13;;
56381;SDS011;50261;51.150;4.470;2023-03-14T01:03:06;9.85;;;1.60;;
56381;SDS011;50261;51.150;4.470;2023-03-14T01:05:32;6.60;;;1.70;;
56381;SDS011;50261;51.150;4.470;2023-03-14T01:07:58;7.53;;;1.63;;
56381;SDS011;50261;51.150;4.470;2023-03-14T01:10:24;6.53;;;1.75;;
56381;SDS011;50261;51.150;4.470;2023-03-14T01:12:50;11.02;;;1.73;;
56381;SDS011;50261;51.150;4.470;2023-03-14T01:15:16;7.97;;;1.40;;
56381;SDS011;50261;51.150;4.470;2023-03-14T01:17:41;8.63;;;1.48;;
56381;SDS011;50261;51.150;4.470;2023-03-14T01:20:08;9.55;;;1.45;;
56381;SDS011;50261;51.150;4.470;2023-03-14T01:22:35;6.50;;;1.55;;
56381;SDS011;50261;51.150;4.470;2023-03-14T01:25:01;8.90;;;1.85;;
56381;SDS011;50261;51.150;4.470;2023-03-14T01:27:27;5.38;;;1.20;;
56381;SDS011;50261;51.150;4.470;2023-03-14T01:29:53;8.57;;;0.88;;
56381;SDS011;50261;51.150;4.470;2023-03-14T01:32:18;5.55;;;1.45;;
56381;SDS011;50261;51.150;4.470;2023-03-14T01:34:44;6.45;;;1.13;;
56381;SDS011;50261;51.150;4.470;2023-03-14T01:37:10;11.15;;;2.20;;
56381;SDS011;50261;51.150;4.470;2023-03-14T01:39:38;10.18;;;1.85;;
56381;SDS011;50261;51.150;4.470;2023-03-14T01:42:04;6.28;;;1.35;;
56381;SDS011;50261;51.150;4.470;2023-03-14T01:47:13;10.15;;;2.28;;
56381;SDS011;50261;51.150;4.470;2023-03-14T01:49:39;8.00;;;1.60;;
56381;SDS011;50261;51.150;4.470;2023-03-14T01:54:36;9.40;;;2.08;;
56381;SDS011;50261;51.150;4.470;2023-03-14T01:57:49;7.00;;;1.83;;
56381;SDS011;50261;51.150;4.470;2023-03-14T02:02:47;9.88;;;1.50;;
56381;SDS011;50261;51.150;4.470;2023-03-14T02:05:18;10.00;;;2.05;;
56381;SDS011;50261;51.150;4.470;2023-03-14T02:07:54;9.18;;;1.90;;
56381;SDS011;50261;51.150;4.470;2023-03-14T02:10:25;8.68;;;1.77;;
56381;SDS011;50261;51.150;4.470;2023-03-14T02:12:53;9.20;;;1.63;;
56381;SDS011;50261;51.150;4.470;2023-03-14T02:15:40;7.65;;;1.98;;
56381;SDS011;50261;51.150;4.470;2023-03-14T02:18:13;8.20;;;1.27;;
56381;SDS011;50261;51.150;4.470;2023-03-14T02:21:01;9.55;;;1.67;;
56381;SDS011;50261;51.150;4.470;2023-03-14T02:23:34;10.80;;;1.77;;
56381;SDS011;50261;51.150;4.470;2023-03-14T02:26:06;5.55;;;1.00;;
56381;SDS011;50261;51.150;4.470;2023-03-14T02:28:33;5.03;;;0.98;;
56381;SDS011;50261;51.150;4.470;2023-03-14T02:31:00;9.50;;;1.42;;
56381;SDS011;50261;51.150;4.470;2023-03-14T02:33:26;10.90;;;1.73;;
56381;SDS011;50261;51.150;4.470;2023-03-14T02:40:48;7.90;;;1.80;;
56381;SDS011;50261;51.150;4.470;2023-03-14T02:43:14;6.18;;;1.70;;
56381;SDS011;50261;51.150;4.470;2023-03-14T02:45:46;7.53;;;1.35;;
56381;SDS011;50261;51.150;4.470;2023-03-14T02:48:16;8.23;;;1.30;;
56381;SDS011;50261;51.150;4.470;2023-03-14T02:50:43;5.00;;;0.77;;
56381;SDS011;50261;51.150;4.470;2023-03-14T02:53:11;6.35;;;1.23;;
56381;SDS011;50261;51.150;4.470;2023-03-14T02:55:37;7.18;;;1.15;;
56381;SDS011;50261;51.150;4.470;2023-03-14T02:58:09;5.07;;;1.02;;
56381;SDS011;50261;51.150;4.470;2023-03-14T03:00:35;4.38;;;1.20;;
56381;SDS011;50261;51.150;4.470;2023-03-14T03:03:03;4.07;;;0.50;;
56381;SDS011;50261;51.150;4.470;2023-03-14T03:05:31;3.38;;;0.75;;
56381;SDS011;50261;51.150;4.470;2023-03-14T03:07:57;5.72;;;0.95;;
56381;SDS011;50261;51.150;4.470;2023-03-14T03:10:23;5.60;;;0.98;;
56381;SDS011;50261;51.150;4.470;2023-03-14T03:12:49;6.75;;;1.25;;
56381;SDS011;50261;51.150;4.470;2023-03-14T03:15:15;6.50;;;1.15;;
56381;SDS011;50261;51.150;4.470;2023-03-14T03:17:41;5.38;;;0.98;;
56381;SDS011;50261;51.150;4.470;2023-03-14T03:20:07;7.13;;;1.10;;
56381;SDS011;50261;51.150;4.470;2023-03-14T03:22:34;5.30;;;1.08;;
56381;SDS011;50261;51.150;4.470;2023-03-14T03:25:01;1.48;;;0.65;;
56381;SDS011;50261;51.150;4.470;2023-03-14T03:27:29;6.35;;;1.27;;
56381;SDS011;50261;51.150;4.470;2023-03-14T03:29:56;7.93;;;1.20;;
56381;SDS011;50261;51.150;4.470;2023-03-14T03:32:21;6.30;;;1.10;;
56381;SDS011;50261;51.150;4.470;2023-03-14T03:34:47;9.88;;;1.48;;
56381;SDS011;50261;51.150;4.470;2023-03-14T03:37:13;5.88;;;1.33;;
56381;SDS011;50261;51.150;4.470;2023-03-14T03:39:40;8.25;;;2.38;;
56381;SDS011;50261;51.150;4.470;2023-03-14T03:42:06;10.38;;;2.67;;
56381;SDS011;50261;51.150;4.470;2023-03-14T03:44:32;6.40;;;3.15;;
56381;SDS011;50261;51.150;4.470;2023-03-14T03:46:57;10.10;;;2.97;;
56381;SDS011;50261;51.150;4.470;2023-03-14T03:49:23;9.13;;;3.38;;
56381;SDS011;50261;51.150;4.470;2023-03-14T03:51:49;6.90;;;2.67;;
56381;SDS011;50261;51.150;4.470;2023-03-14T03:54:15;11.15;;;3.22;;
56381;SDS011;50261;51.150;4.470;2023-03-14T03:56:41;10.48;;;2.60;;
56381;SDS011;50261;51.150;4.470;2023-03-14T03:59:06;4.90;;;2.30;;
56381;SDS011;50261;51.150;4.470;2023-03-14T04:01:32;6.00;;;2.33;;
56381;SDS011;50261;51.150;4.470;2023-03-14T04:03:58;9.88;;;2.08;;
56381;SDS011;50261;51.150;4.470;2023-03-14T04:06:25;8.35;;;2.45;;
56381;SDS011;50261;51.150;4.470;2023-03-14T04:08:54;20.92;;;6.75;;
56381;SDS011;50261;51.150;4.470;2023-03-14T04:11:34;21.30;;;9.30;;
56381;SDS011;50261;51.150;4.470;2023-03-14T04:14:25;23.20;;;12.23;;
56381;SDS011;50261;51.150;4.470;2023-03-14T04:17:08;20.58;;;11.27;;
56381;SDS011;50261;51.150;4.470;2023-03-14T04:19:34;18.42;;;9.70;;
56381;SDS011;50261;51.150;4.470;2023-03-14T04:22:00;11.20;;;5.90;;
56381;SDS011;50261;51.150;4.470;2023-03-14T04:24:31;9.88;;;4.80;;
56381;SDS011;50261;51.150;4.470;2023-03-14T04:26:57;12.27;;;3.03;;
56381;SDS011;50261;51.150;4.470;2023-03-14T04:29:24;8.93;;;2.42;;
56381;SDS011;50261;51.150;4.470;2023-03-14T04:31:50;7.20;;;1.98;;
56381;SDS011;50261;51.150;4.470;2023-03-14T04:34:16;1.95;;;1.08;;
56381;SDS011;50261;51.150;4.470;2023-03-14T04:36:48;7.72;;;2.15;;
56381;SDS011;50261;51.150;4.470;2023-03-14T04:39:18;8.80;;;2.28;;
56381;SDS011;50261;51.150;4.470;2023-03-14T04:41:52;4.63;;;1.80;;
56381;SDS011;50261;51.150;4.470;2023-03-14T04:44:17;8.48;;;1.92;;
56381;SDS011;50261;51.150;4.470;2023-03-14T04:46:43;8.88;;;2.25;;
56381;SDS011;50261;51.150;4.470;2023-03-14T04:49:10;5.90;;;1.67;;
56381;SDS011;50261;51.150;4.470;2023-03-14T04:51:37;11.27;;;1.70;;
56381;SDS011;50261;51.150;4.470;2023-03-14T04:54:03;7.38;;;2.00;;
56381;SDS011;50261;51.150;4.470;2023-03-14T04:56:28;7.72;;;1.80;;
56381;SDS011;50261;51.150;4.470;2023-03-14T04:58:55;4.07;;;0.93;;
56381;SDS011;50261;51.150;4.470;2023-03-14T05:01:21;7.03;;;2.00;;
56381;SDS011;50261;51.150;4.470;2023-03-14T05:03:46;5.07;;;1.45;;
56381;SDS011;50261;51.150;4.470;2023-03-14T05:06:31;7.70;;;2.05;;
56381;SDS011;50261;51.150;4.470;2023-03-14T05:09:21;5.05;;;2.30;;
56381;SDS011;50261;51.150;4.470;2023-03-14T05:12:07;5.90;;;1.83;;
56381;SDS011;50261;51.150;4.470;2023-03-14T05:15:06;6.15;;;2.10;;
56381;SDS011;50261;51.150;4.470;2023-03-14T05:17:57;6.13;;;2.03;;
56381;SDS011;50261;51.150;4.470;2023-03-14T05:20:35;4.10;;;2.00;;
56381;SDS011;50261;51.150;4.470;2023-03-14T05:23:21;5.53;;;1.75;;
56381;SDS011;50261;51.150;4.470;2023-03-14T05:26:22;8.05;;;2.10;;
56381;SDS011;50261;51.150;4.470;2023-03-14T05:29:20;6.15;;;1.67;;
56381;SDS011;50261;51.150;4.470;2023-03-14T05:32:06;1.52;;;0.73;;
56381;SDS011;50261;51.150;4.470;2023-03-14T05:34:52;4.18;;;1.83;;
56381;SDS011;50261;51.150;4.470;2023-03-14T05:37:31;5.38;;;2.00;;
56381;SDS011;50261;51.150;4.470;2023-03-14T05:40:16;3.35;;;2.20;;
56381;SDS011;50261;51.150;4.470;2023-03-14T05:42:51;3.53;;;1.75;;
56381;SDS011;50261;51.150;4.470;2023-03-14T05:45:37;6.47;;;2.75;;
56381;SDS011;50261;51.150;4.470;2023-03-14T05:48:18;7.53;;;2.88;;
56381;SDS011;50261;51.150;4.470;2023-03-14T05:51:04;6.38;;;1.80;;
56381;SDS011;50261;51.150;4.470;2023-03-14T05:53:48;6.07;;;2.70;;
56381;SDS011;50261;51.150;4.470;2023-03-14T05:56:42;5.63;;;2.83;;
56381;SDS011;50261;51.150;4.470;2023-03-14T05:59:28;6.60;;;2.95;;
56381;SDS011;50261;51.150;4.470;2023-03-14T06:02:06;6.20;;;2.10;;
56381;SDS011;50261;51.150;4.470;2023-03-14T06:04:43;9.40;;;3.90;;
56381;SDS011;50261;51.150;4.470;2023-03-14T06:07:08;9.43;;;3.28;;
56381;SDS011;50261;51.150;4.470;2023-03-14T06:09:33;4.68;;;2.15;;
56381;SDS011;50261;51.150;4.470;2023-03-14T06:12:00;6.47;;;2.65;;
56381;SDS011;50261;51.150;4.470;2023-03-14T06:14:30;4.20;;;2.85;;
56381;SDS011;50261;51.150;4.470;2023-03-14T06:16:55;3.10;;;2.05;;
56381;SDS011;50261;51.150;4.470;2023-03-14T06:19:23;7.25;;;3.67;;
56381;SDS011;50261;51.150;4.470;2023-03-14T06:21:49;9.88;;;4.10;;
56381;SDS011;50261;51.150;4.470;2023-03-14T06:24:14;7.32;;;4.15;;
56381;SDS011;50261;51.150;4.470;2023-03-14T06:26:45;7.18;;;4.00;;
56381;SDS011;50261;51.150;4.470;2023-03-14T06:29:10;10.13;;;4.20;;
56381;SDS011;50261;51.150;4.470;2023-03-14T06:31:38;7.28;;;3.25;;
56381;SDS011;50261;51.150;4.470;2023-03-14T06:34:05;8.77;;;3.55;;
56381;SDS011;50261;51.150;4.470;2023-03-14T06:36:32;13.23;;;4.32;;
56381;SDS011;50261;51.150;4.470;2023-03-14T06:38:57;9.23;;;3.33;;
56381;SDS011;50261;51.150;4.470;2023-03-14T06:41:25;2.35;;;1.05;;
56381;SDS011;50261;51.150;4.470;2023-03-14T06:43:52;3.80;;;0.80;;
56381;SDS011;50261;51.150;4.470;2023-03-14T06:46:19;4.85;;;1.00;;
56381;SDS011;50261;51.150;4.470;2023-03-14T06:48:44;6.38;;;1.40;;
56381;SDS011;50261;51.150;4.470;2023-03-14T06:51:11;5.22;;;1.17;;
56381;SDS011;50261;51.150;4.470;2023-03-14T06:53:36;3.28;;;0.80;;
56381;SDS011;50261;51.150;4.470;2023-03-14T06:56:02;3.05;;;1.05;;
56381;SDS011;50261;51.150;4.470;2023-03-14T06:58:30;3.80;;;1.00;;
56381;SDS011;50261;51.150;4.470;2023-03-14T07:00:57;4.45;;;0.95;;
56381;SDS011;50261;51.150;4.470;2023-03-14T07:03:28;2.72;;;0.63;;
56381;SDS011;50261;51.150;4.470;2023-03-14T07:05:55;2.80;;;0.70;;
56381;SDS011;50261;51.150;4.470;2023-03-14T07:08:20;4.18;;;0.70;;
56381;SDS011;50261;51.150;4.470;2023-03-14T07:10:46;3.92;;;1.90;;
56381;SDS011;50261;51.150;4.470;2023-03-14T07:13:12;8.43;;;2.88;;
56381;SDS011;50261;51.150;4.470;2023-03-14T07:16:04;4.65;;;2.10;;
56381;SDS011;50261;51.150;4.470;2023-03-14T07:18:30;7.72;;;1.90;;
56381;SDS011;50261;51.150;4.470;2023-03-14T07:20:56;5.57;;;2.50;;
56381;SDS011;50261;51.150;4.470;2023-03-14T07:23:21;5.57;;;1.83;;
56381;SDS011;50261;51.150;4.470;2023-03-14T07:25:50;8.52;;;1.70;;
56381;SDS011;50261;51.150;4.470;2023-03-14T07:28:18;4.20;;;1.67;;
56381;SDS011;50261;51.150;4.470;2023-03-14T07:30:46;4.32;;;1.60;;
56381;SDS011;50261;51.150;4.470;2023-03-14T07:33:17;4.32;;;1.02;;
56381;SDS011;50261;51.150;4.470;2023-03-14T07:35:42;6.60;;;1.10;;
56381;SDS011;50261;51.150;4.470;2023-03-14T07:38:08;6.95;;;1.20;;
56381;SDS011;50261;51.150;4.470;2023-03-14T07:40:39;6.25;;;1.25;;
56381;SDS011;50261;51.150;4.470;2023-03-14T07:43:05;5.25;;;1.27;;
56381;SDS011;50261;51.150;4.470;2023-03-14T07:45:46;7.85;;;0.88;;
56381;SDS011;50261;51.150;4.470;2023-03-14T07:48:12;7.10;;;1.30;;
56381;SDS011;50261;51.150;4.470;2023-03-14T07:50:38;11.63;;;1.70;;
56381;SDS011;50261;51.150;4.470;2023-03-14T07:53:03;8.38;;;1.50;;
56381;SDS011;50261;51.150;4.470;2023-03-14T07:55:29;9.13;;;2.10;;
56381;SDS011;50261;51.150;4.470;2023-03-14T07:57:54;7.20;;;1.50;;
56381;SDS011;50261;51.150;4.470;2023-03-14T08:00:20;7.20;;;1.50;;
56381;SDS011;50261;51.150;4.470;2023-03-14T08:02:46;4.72;;;1.40;;
56381;SDS011;50261;51.150;4.470;2023-03-14T08:05:12;7.18;;;1.75;;
56381;SDS011;50261;51.150;4.470;2023-03-14T08:07:38;5.53;;;1.73;;
56381;SDS011;50261;51.150;4.470;2023-03-14T08:10:03;3.38;;;1.27;;
56381;SDS011;50261;51.150;4.470;2023-03-14T08:12:29;5.32;;;1.30;;
56381;SDS011;50261;51.150;4.470;2023-03-14T08:14:55;8.80;;;1.48;;
56381;SDS011;50261;51.150;4.470;2023-03-14T08:17:20;4.53;;;1.20;;
56381;SDS011;50261;51.150;4.470;2023-03-14T08:19:46;7.68;;;1.77;;
56381;SDS011;50261;51.150;4.470;2023-03-14T08:22:12;6.15;;;1.23;;
56381;SDS011;50261;51.150;4.470;2023-03-14T08:24:38;4.72;;;1.25;;
56381;SDS011;50261;51.150;4.470;2023-03-14T08:27:03;4.40;;;1.15;;
56381;SDS011;50261;51.150;4.470;2023-03-14T08:29:29;5.45;;;1.30;;
56381;SDS011;50261;51.150;4.470;2023-03-14T08:31:55;6.82;;;1.35;;
56381;SDS011;50261;51.150;4.470;2023-03-14T08:34:20;6.07;;;1.25;;
56381;SDS011;50261;51.150;4.470;2023-03-14T08:36:46;5.68;;;1.05;;
56381;SDS011;50261;51.150;4.470;2023-03-14T08:39:12;4.22;;;0.75;;
56381;SDS011;50261;51.150;4.470;2023-03-14T08:41:38;3.63;;;0.70;;
56381;SDS011;50261;51.150;4.470;2023-03-14T08:44:07;3.17;;;0.28;;
56381;SDS011;50261;51.150;4.470;2023-03-14T08:46:33;5.10;;;0.73;;
56381;SDS011;50261;51.150;4.470;2023-03-14T08:48:58;4.22;;;0.55;;
56381;SDS011;50261;51.150;4.470;2023-03-14T08:51:24;6.13;;;1.38;;
56381;SDS011;50261;51.150;4.470;2023-03-14T08:53:50;3.00;;;0.95;;
56381;SDS011;50261;51.150;4.470;2023-03-14T08:56:15;8.82;;;1.10;;
56381;SDS011;50261;51.150;4.470;2023-03-14T08:58:41;5.13;;;1.48;;
56381;SDS011;50261;51.150;4.470;2023-03-14T09:01:08;6.55;;;1.45;;
56381;SDS011;50261;51.150;4.470;2023-03-14T09:03:35;2.88;;;0.95;;
56381;SDS011;50261;51.150;4.470;2023-03-14T09:06:04;5.95;;;0.98;;
56381;SDS011;50261;51.150;4.470;2023-03-14T09:08:30;3.47;;;0.80;;
56381;SDS011;50261;51.150;4.470;2023-03-14T09:10:56;5.53;;;1.27;;
56381;SDS011;50261;51.150;4.470;2023-03-14T09:13:21;4.57;;;1.08;;
56381;SDS011;50261;51.150;4.470;2023-03-14T09:15:51;5.45;;;0.98;;
56381;SDS011;50261;51.150;4.470;2023-03-14T09:18:17;4.30;;;1.27;;
56381;SDS011;50261;51.150;4.470;2023-03-14T09:20:42;3.58;;;0.80;;
56381;SDS011;50261;51.150;4.470;2023-03-14T09:23:08;3.88;;;0.65;;
56381;SDS011;50261;51.150;4.470;2023-03-14T09:25:34;2.55;;;0.60;;
56381;SDS011;50261;51.150;4.470;2023-03-14T09:27:59;3.38;;;0.47;;
56381;SDS011;50261;51.150;4.470;2023-03-14T09:30:25;3.25;;;0.60;;
56381;SDS011;50261;51.150;4.470;2023-03-14T09:32:51;2.92;;;0.80;;
56381;SDS011;50261;51.150;4.470;2023-03-14T09:35:16;3.53;;;0.73;;
56381;SDS011;50261;51.150;4.470;2023-03-14T09:37:42;4.50;;;0.65;;
56381;SDS011;50261;51.150;4.470;2023-03-14T09:40:17;3.40;;;0.75;;
56381;SDS011;50261;51.150;4.470;2023-03-14T09:42:45;4.05;;;0.52;;
56381;SDS011;50261;51.150;4.470;2023-03-14T09:45:17;3.25;;;0.50;;
56381;SDS011;50261;51.150;4.470;2023-03-14T09:47:45;1.83;;;0.63;;
56381;SDS011;50261;51.150;4.470;2023-03-14T09:50:13;1.33;;;0.45;;
56381;SDS011;50261;51.150;4.470;2023-03-14T09:52:39;4.03;;;0.60;;
56381;SDS011;50261;51.150;4.470;2023-03-14T09:55:20;1.60;;;0.52;;
56381;SDS011;50261;51.150;4.470;2023-03-14T09:57:48;3.42;;;0.65;;
56381;SDS011;50261;51.150;4.470;2023-03-14T10:00:19;4.22;;;0.80;;
56381;SDS011;50261;51.150;4.470;2023-03-14T10:05:29;1.83;;;0.80;;
56381;SDS011;50261;51.150;4.470;2023-03-14T10:07:55;2.47;;;0.80;;
56381;SDS011;50261;51.150;4.470;2023-03-14T10:10:22;4.85;;;0.95;;
56381;SDS011;50261;51.150;4.470;2023-03-14T10:12:55;2.10;;;1.02;;
56381;SDS011;50261;51.150;4.470;2023-03-14T10:15:31;5.22;;;1.20;;
56381;SDS011;50261;51.150;4.470;2023-03-14T10:17:59;4.00;;;0.82;;
56381;SDS011;50261;51.150;4.470;2023-03-14T10:20:26;5.35;;;0.98;;
56381;SDS011;50261;51.150;4.470;2023-03-14T10:22:54;1.80;;;0.82;;
56381;SDS011;50261;51.150;4.470;2023-03-14T10:25:30;3.67;;;0.90;;
56381;SDS011;50261;51.150;4.470;2023-03-14T10:27:56;2.55;;;0.80;;
56381;SDS011;50261;51.150;4.470;2023-03-14T10:31:05;2.83;;;1.00;;
56381;SDS011;50261;51.150;4.470;2023-03-14T10:35:43;2.10;;;0.90;;
56381;SDS011;50261;51.150;4.470;2023-03-14T10:38:16;6.63;;;1.00;;
56381;SDS011;50261;51.150;4.470;2023-03-14T10:40:46;3.60;;;1.37;;
56381;SDS011;50261;51.150;4.470;2023-03-14T10:43:18;6.60;;;0.93;;
56381;SDS011;50261;51.150;4.470;2023-03-14T10:45:56;6.18;;;0.95;;
56381;SDS011;50261;51.150;4.470;2023-03-14T10:48:33;6.22;;;0.90;;
56381;SDS011;50261;51.150;4.470;2023-03-14T10:53:25;6.78;;;1.38;;
56381;SDS011;50261;51.150;4.470;2023-03-14T10:55:51;3.95;;;1.02;;
56381;SDS011;50261;51.150;4.470;2023-03-14T10:58:24;4.55;;;1.00;;
56381;SDS011;50261;51.150;4.470;2023-03-14T11:00:57;3.45;;;1.00;;
56381;SDS011;50261;51.150;4.470;2023-03-14T11:03:23;7.18;;;1.23;;
56381;SDS011;50261;51.150;4.470;2023-03-14T11:05:52;5.88;;;1.05;;
56381;SDS011;50261;51.150;4.470;2023-03-14T11:08:21;5.93;;;0.98;;
56381;SDS011;50261;51.150;4.470;2023-03-14T11:10:51;4.45;;;0.90;;
56381;SDS011;50261;51.150;4.470;2023-03-14T11:13:28;4.38;;;0.95;;
56381;SDS011;50261;51.150;4.470;2023-03-14T11:18:45;6.20;;;1.40;;
56381;SDS011;50261;51.150;4.470;2023-03-14T11:26:20;8.73;;;1.48;;
56381;SDS011;50261;51.150;4.470;2023-03-14T11:28:49;9.27;;;1.90;;
56381;SDS011;50261;51.150;4.470;2023-03-14T11:31:19;9.40;;;1.92;;
56381;SDS011;50261;51.150;4.470;2023-03-14T11:33:47;4.80;;;1.83;;
56381;SDS011;50261;51.150;4.470;2023-03-14T11:36:33;10.13;;;1.77;;
56381;SDS011;50261;51.150;4.470;2023-03-14T11:39:02;10.27;;;2.10;;
56381;SDS011;50261;51.150;4.470;2023-03-14T11:41:32;6.78;;;1.67;;
56381;SDS011;50261;51.150;4.470;2023-03-14T11:44:01;8.05;;;1.75;;
56381;SDS011;50261;51.150;4.470;2023-03-14T11:46:29;8.32;;;1.98;;
56381;SDS011;50261;51.150;4.470;2023-03-14T11:49:04;7.03;;;1.80;;
56381;SDS011;50261;51.150;4.470;2023-03-14T11:51:32;6.78;;;1.70;;
56381;SDS011;50261;51.150;4.470;2023-03-14T11:59:01;8.65;;;1.80;;
56381;SDS011;50261;51.150;4.470;2023-03-14T12:01:31;9.65;;;2.00;;
56381;SDS011;50261;51.150;4.470;2023-03-14T12:04:13;14.63;;;2.38;;
56381;SDS011;50261;51.150;4.470;2023-03-14T12:06:46;9.38;;;2.25;;
56381;SDS011;50261;51.150;4.470;2023-03-14T12:09:12;11.05;;;2.10;;
56381;SDS011;50261;51.150;4.470;2023-03-14T12:14:16;11.45;;;2.47;;
56381;SDS011;50261;51.150;4.470;2023-03-14T12:16:43;14.05;;;2.65;;
56381;SDS011;50261;51.150;4.470;2023-03-14T12:21:47;15.82;;;3.53;;
56381;SDS011;50261;51.150;4.470;2023-03-14T12:24:20;16.52;;;3.40;;
56381;SDS011;50261;51.150;4.470;2023-03-14T12:26:54;18.77;;;3.00;;
56381;SDS011;50261;51.150;4.470;2023-03-14T12:29:20;15.20;;;3.25;;
56381;SDS011;50261;51.150;4.470;2023-03-14T12:31:47;14.25;;;2.80;;
56381;SDS011;50261;51.150;4.470;2023-03-14T12:36:48;14.80;;;2.90;;
56381;SDS011;50261;51.150;4.470;2023-03-14T12:42:04;17.42;;;3.05;;
56381;SDS011;50261;51.150;4.470;2023-03-14T12:46:56;17.15;;;3.05;;
56381;SDS011;50261;51.150;4.470;2023-03-14T12:49:23;16.88;;;3.00;;
56381;SDS011;50261;51.150;4.470;2023-03-14T12:51:58;20.73;;;3.13;;
56381;SDS011;50261;51.150;4.470;2023-03-14T12:56:52;16.13;;;3.42;;
56381;SDS011;50261;51.150;4.470;2023-03-14T13:01:47;17.10;;;3.47;;
56381;SDS011;50261;51.150;4.470;2023-03-14T13:04:13;20.05;;;2.88;;
56381;SDS011;50261;51.150;4.470;2023-03-14T13:06:58;18.35;;;2.85;;
56381;SDS011;50261;51.150;4.470;2023-03-14T13:12:34;18.75;;;2.53;;
56381;SDS011;50261;51.150;4.470;2023-03-14T13:14:50;16.60;;;2.88;;
56381;SDS011;50261;51.150;4.470;2023-03-14T13:17:25;12.63;;;2.47;;
56381;SDS011;50261;51.150;4.470;2023-03-14T13:19:57;10.45;;;2.80;;
56381;SDS011;50261;51.150;4.470;2023-03-14T13:22:30;9.82;;;2.15;;
56381;SDS011;50261;51.150;4.470;2023-03-14T13:25:00;19.50;;;2.88;;
56381;SDS011;50261;51.150;4.470;2023-03-14T13:27:29;15.15;;;2.85;;
56381;SDS011;50261;51.150;4.470;2023-03-14T13:29:55;12.15;;;2.33;;
56381;SDS011;50261;51.150;4.470;2023-03-14T13:32:22;13.18;;;2.22;;
56381;SDS011;50261;51.150;4.470;2023-03-14T13:34:48;14.23;;;2.40;;
56381;SDS011;50261;51.150;4.470;2023-03-14T13:37:18;11.90;;;2.15;;
56381;SDS011;50261;51.150;4.470;2023-03-14T13:39:48;8.32;;;2.10;;
56381;SDS011;50261;51.150;4.470;2023-03-14T13:42:15;9.23;;;1.60;;
56381;SDS011;50261;51.150;4.470;2023-03-14T13:44:41;7.20;;;1.45;;
56381;SDS011;50261;51.150;4.470;2023-03-14T13:47:11;13.20;;;2.08;;
56381;SDS011;50261;51.150;4.470;2023-03-14T13:49:38;10.38;;;2.03;;
56381;SDS011;50261;51.150;4.470;2023-03-14T13:52:20;7.78;;;1.98;;
56381;SDS011;50261;51.150;4.470;2023-03-14T13:54:46;11.38;;;2.30;;
56381;SDS011;50261;51.150;4.470;2023-03-14T13:57:11;6.05;;;1.67;;
56381;SDS011;50261;51.150;4.470;2023-03-14T13:59:37;6.90;;;1.23;;
56381;SDS011;50261;51.150;4.470;2023-03-14T14:02:04;9.50;;;1.80;;
56381;SDS011;50261;51.150;4.470;2023-03-14T14:04:35;8.65;;;1.67;;
56381;SDS011;50261;51.150;4.470;2023-03-14T14:07:06;8.63;;;2.38;;
56381;SDS011;50261;51.150;4.470;2023-03-14T14:09:36;15.27;;;2.30;;
56381;SDS011;50261;51.150;4.470;2023-03-14T14:12:03;12.02;;;2.40;;
56381;SDS011;50261;51.150;4.470;2023-03-14T14:16:59;4.75;;;1.00;;
56381;SDS011;50261;51.150;4.470;2023-03-14T14:19:26;5.53;;;0.88;;
56381;SDS011;50261;51.150;4.470;2023-03-14T14:21:53;5.32;;;1.17;;
56381;SDS011;50261;51.150;4.470;2023-03-14T14:24:19;2.92;;;0.70;;
56381;SDS011;50261;51.150;4.470;2023-03-14T14:26:47;3.88;;;0.77;;
56381;SDS011;50261;51.150;4.470;2023-03-14T14:29:32;5.13;;;0.80;;
56381;SDS011;50261;51.150;4.470;2023-03-14T14:37:15;2.80;;;0.40;;
56381;SDS011;50261;51.150;4.470;2023-03-14T14:39:43;8.95;;;0.90;;
56381;SDS011;50261;51.150;4.470;2023-03-14T14:42:12;3.67;;;0.70;;
56381;SDS011;50261;51.150;4.470;2023-03-14T14:44:39;2.95;;;0.60;;
56381;SDS011;50261;51.150;4.470;2023-03-14T14:47:07;2.65;;;0.52;;
56381;SDS011;50261;51.150;4.470;2023-03-14T14:49:37;8.63;;;0.70;;
56381;SDS011;50261;51.150;4.470;2023-03-14T14:52:12;3.55;;;1.20;;
56381;SDS011;50261;51.150;4.470;2023-03-14T14:54:43;5.30;;;1.10;;
56381;SDS011;50261;51.150;4.470;2023-03-14T14:57:17;5.53;;;0.93;;
56381;SDS011;50261;51.150;4.470;2023-03-14T14:59:43;2.47;;;0.80;;
56381;SDS011;50261;51.150;4.470;2023-03-14T15:02:23;7.22;;;1.10;;
56381;SDS011;50261;51.150;4.470;2023-03-14T15:04:50;5.82;;;1.15;;
56381;SDS011;50261;51.150;4.470;2023-03-14T15:07:16;3.92;;;1.25;;
56381;SDS011;50261;51.150;4.470;2023-03-14T15:09:42;8.30;;;1.40;;
56381;SDS011;50261;51.150;4.470;2023-03-14T15:12:07;6.13;;;1.20;;
56381;SDS011;50261;51.150;4.470;2023-03-14T15:14:33;6.63;;;1.83;;
56381;SDS011;50261;51.150;4.470;2023-03-14T15:16:59;4.38;;;1.40;;
56381;SDS011;50261;51.150;4.470;2023-03-14T15:19:25;6.80;;;1.63;;
56381;SDS011;50261;51.150;4.470;2023-03-14T15:21:53;9.00;;;1.65;;
56381;SDS011;50261;51.150;4.470;2023-03-14T15:24:19;6.93;;;1.70;;
56381;SDS011;50261;51.150;4.470;2023-03-14T15:26:45;10.38;;;1.67;;
56381;SDS011;50261;51.150;4.470;2023-03-14T15:29:11;8.30;;;2.20;;
56381;SDS011;50261;51.150;4.470;2023-03-14T15:31:38;6.63;;;2.25;;
56381;SDS011;50261;51.150;4.470;2023-03-14T15:34:04;9.73;;;1.88;;
56381;SDS011;50261;51.150;4.470;2023-03-14T15:36:33;15.25;;;1.83;;
56381;SDS011;50261;51.150;4.470;2023-03-14T15:39:01;8.05;;;1.75;;
56381;SDS011;50261;51.150;4.470;2023-03-14T15:41:27;8.50;;;1.75;;
56381;SDS011;50261;51.150;4.470;2023-03-14T15:43:53;10.98;;;1.60;;
56381;SDS011;50261;51.150;4.470;2023-03-14T15:46:19;9.02;;;1.80;;
56381;SDS011;50261;51.150;4.470;2023-03-14T15:48:47;6.90;;;1.42;;
56381;SDS011;50261;51.150;4.470;2023-03-14T15:51:13;9.10;;;2.00;;
56381;SDS011;50261;51.150;4.470;2023-03-14T15:53:39;5.10;;;1.70;;
56381;SDS011;50261;51.150;4.470;2023-03-14T15:56:05;8.25;;;1.38;;
56381;SDS011;50261;51.150;4.470;2023-03-14T15:58:31;8.88;;;1.67;;
56381;SDS011;50261;51.150;4.470;2023-03-14T16:01:02;9.48;;;1.88;;